Observations for LORIENT LANN BIHOUE, France (LFRH)

LFRH 202230Z AUTO 19007KT CAVOK 11/10 Q1019 NOSIG   
LFRH 202200Z AUTO 19006KT CAVOK 11/10 Q1019 NOSIG   
LFRH 202130Z AUTO 20005KT CAVOK 10/10 Q1020 NOSIG   
LFRH 202100Z AUTO 19006KT CAVOK 11/10 Q1020 NOSIG   
LFRH 202030Z AUTO 19005KT CAVOK 11/10 Q1020 NOSIG   
LFRH 202000Z AUTO 20006KT CAVOK 11/10 Q1020 NOSIG   
LFRH 201930Z AUTO 20007KT 9999 SCT015 11/10 Q1020 NOSIG 
LFRH 201900Z AUTO 20006KT 9999 OVC015 12/11 Q1020 NOSIG 
LFRH 201830Z AUTO 20005KT 9999 OVC015 12/11 Q1020 NOSIG 
LFRH 201800Z AUTO 20004KT 9999 BKN015 OVC020 12/10 Q1021 NOSIG  
LFRH 201730Z AUTO 20005KT 180V240 9999 OVC019 12/10 Q1020 NOSIG 
LFRH 201700Z AUTO 20005KT 9999 OVC019 12/10 Q1021 NOSIG 
LFRH 201630Z AUTO 21005KT 9999 OVC018 12/10 Q1021 NOSIG 
LFRH 201600Z AUTO 21007KT 9999 OVC018 13/10 Q1021 NOSIG 
LFRH 201530Z AUTO 21006KT 9999 OVC019 13/11 Q1021 NOSIG 
LFRH 201500Z AUTO 21007KT 180V240 9999 FEW016 BKN022 13/10 Q1021 NOSIG  
LFRH 201430Z AUTO 21007KT 9999 FEW016 OVC022 13/11 Q1021 NOSIG  
LFRH 201400Z AUTO 21007KT 9999 BKN016 OVC022 13/10 Q1021 NOSIG  
LFRH 201330Z AUTO 21009KT 9999 BKN018 BKN023 13/10 Q1022 NOSIG  
LFRH 201300Z AUTO 22009KT 9999 OVC019 13/10 Q1022 NOSIG 
LFRH 201230Z AUTO 21008KT 180V240 9999 OVC019 13/10 Q1022 NOSIG 
LFRH 201200Z AUTO 21008KT 9999 OVC018 13/10 Q1023 NOSIG 
LFRH 201130Z AUTO 22007KT 190V250 9999 OVC018 13/10 Q1023 NOSIG 
LFRH 201100Z AUTO 21006KT 9999 OVC017 13/10 Q1023 NOSIG 
LFRH 201030Z AUTO 21006KT 9999 OVC018 12/10 Q1023 NOSIG 
LFRH 201000Z AUTO 21007KT 9999 BKN019 12/10 Q1023 NOSIG 
LFRH 200930Z AUTO 22008KT 9999 BKN019 11/10 Q1023 NOSIG 
LFRH 200900Z AUTO 22007KT 9999 BKN018 10/10 Q1023 NOSIG 
LFRH 200830Z AUTO 22004KT 9999 BKN019 06/06 Q1023 NOSIG 
LFRH 200800Z AUTO VRB02KT 9999 BKN019 05/05 Q1023 NOSIG 
LFRH 200730Z AUTO VRB02KT 6000 BKN020 04/04 Q1023 NOSIG 
LFRH 200700Z AUTO 06002KT 6000 BKN020 05/04 Q1023 TEMPO 0700 FG 
LFRH 200630Z AUTO 04003KT 6000 OVC019 05/04 Q1023 TEMPO 0700 FG 
LFRH 200600Z AUTO VRB02KT 5000 BR OVC020 05/04 Q1023 TEMPO 0700 FG  
LFRH 200530Z AUTO VRB01KT 4800 BR FEW001 OVC019 04/04 Q1023 TEMPO 0700 FG   
LFRH 200500Z AUTO 05002KT 1600 R07/1300U BR FEW001 BKN016 OVC021 04/04 Q1023 BECMG 0300 FG VV///
LFRH 200430Z AUTO 06002KT 0350 0300 R25/0550U R07/0650U FG VV/// 03/03 Q1023 TEMPO 1000 BCFG
LFRH 200400Z AUTO 08003KT 0300 0250 R25/0350N R07/0275N FG VV/// 02/02 Q1023 TEMPO 1000 BCFG
LFRH 200330Z AUTO 06002KT 0350 0300 R25/0400N R07/0400N FG VV/// 02/02 Q1023 TEMPO 1000 BCFG
LFRH 200300Z AUTO 06001KT 0550 0500 R25/0550D R07/0700D FG VV/// 03/02 Q1024 TEMPO 5000 BR  
LFRH 200230Z AUTO 07003KT 0300 0250 R25/0300N R07/0350N FG VV/// 03/02 Q1024 TEMPO 5000 BR  
LFRH 200200Z AUTO 07002KT 0700 0550 R25/1100D R07/0500D FG VV/// 03/03 Q1024 TEMPO 5000 BR  
LFRH 200130Z AUTO 05002KT 0650 0600 R25/0800U R07/0700U FG VV/// 03/02 Q1025 TEMPO 5000 BR  
LFRH 200100Z AUTO 09002KT 0650 0600 R25/0900D R07/0900D FG VV/// 03/03 Q1025 TEMPO 5000 BR  
LFRH 200030Z AUTO 07002KT 0500 0450 R25/0650U R07/0600U FG VV/// 04/04 Q1025 TEMPO 5000 BR  
LFRH 200000Z AUTO 06002KT 0650 0500 R25/0650D R07/0650N FG VV/// 04/03 Q1025 TEMPO 5000 BR  
LFRH 192330Z AUTO 06002KT 0300 R25/0350U R07/M0200U FG VV/// 04/04 Q1025 TEMPO 5000 BR  
LFRH 192300Z AUTO 00000KT 0350 0300 R25/0400D R07/0350N FG VV/// 05/04 Q1025 TEMPO 1500 BR  
LFRH 192230Z AUTO 00000KT 0500 0350 R25/0450D R07/P2000 FG VV/// 04/04 Q1025 TEMPO 1500 BR  
LFRH 192200Z AUTO 31002KT 0450 0250 R25/0800U R07/P2000 FG VV/// 05/05 Q1026 TEMPO 1500 BR